Time;durP1;ratioP1;P1;durP2;ratioP2;P2;SDS_P1;SDS_P2;PMS_P1;PMS_P2;Temp;Humidity;BMP_temperature;BMP_pressure;BME280_temperature;BME280_humidity;BME280_pressure;Samples;Min_cycle;Max_cycle;Signal;HPM_P1;HPM_P2
2021/12/19 00:01:34;;;;;;;10.02;8.02;;;;;;;;;;5093927;28;20282;-66
2021/12/19 00:04:16;;;;;;;11.30;7.85;;;;;;;;;;5093605;28;20693;-67
2021/12/19 00:09:30;;;;;;;13.60;8.20;;;;;;;;;;5093532;28;20203;-66
2021/12/19 00:11:57;;;;;;;10.50;8.32;;;;;;;;;;5093359;28;20291;-66
2021/12/19 00:14:24;;;;;;;11.02;7.35;;;;;;;;;;5093281;28;20199;-67
2021/12/19 00:16:52;;;;;;;8.70;7.75;;;;;;;;;;5093426;28;20260;-67
2021/12/19 00:19:19;;;;;;;10.88;7.57;;;;;;;;;;5093239;28;20207;-66
2021/12/19 00:21:48;;;;;;;12.55;9.13;;;;;;;;;;5093483;28;20572;-67
2021/12/19 00:24:15;;;;;;;13.60;8.73;;;;;;;;;;5093570;28;20224;-67
2021/12/19 00:26:43;;;;;;;12.65;8.27;;;;;;;;;;5093006;28;20288;-66
2021/12/19 00:29:10;;;;;;;11.73;9.77;;;;;;;;;;5093565;28;20292;-67
2021/12/19 00:31:38;;;;;;;12.40;8.07;;;;;;;;;;5093702;28;20738;-67
2021/12/19 00:34:06;;;;;;;12.82;8.65;;;;;;;;;;5093546;28;20200;-67
2021/12/19 00:36:33;;;;;;;11.33;8.80;;;;;;;;;;5093411;28;20196;-67
2021/12/19 00:39:02;;;;;;;11.23;7.30;;;;;;;;;;5093145;28;20529;-66
2021/12/19 00:41:29;;;;;;;13.60;9.25;;;;;;;;;;5093564;28;20639;-66
2021/12/19 00:44:07;;;;;;;14.60;9.48;;;;;;;;;;5093367;28;20189;-66
2021/12/19 00:46:42;;;;;;;12.95;7.80;;;;;;;;;;5093114;28;20188;-65
2021/12/19 00:49:10;;;;;;;10.88;7.97;;;;;;;;;;5093712;28;20185;-65
2021/12/19 00:51:37;;;;;;;12.05;8.80;;;;;;;;;;5093400;28;20651;-66
2021/12/19 00:54:09;;;;;;;11.63;6.28;;;;;;;;;;5093380;28;20616;-66
2021/12/19 00:56:37;;;;;;;8.77;7.00;;;;;;;;;;5093433;28;20179;-66
2021/12/19 00:59:04;;;;;;;10.13;7.07;;;;;;;;;;5092983;28;20202;-66
2021/12/19 01:01:32;;;;;;;9.45;7.13;;;;;;;;;;5092935;28;20232;-65
2021/12/19 01:03:59;;;;;;;7.57;5.30;;;;;;;;;;5092949;28;20196;-66
2021/12/19 01:06:28;;;;;;;10.63;6.50;;;;;;;;;;5092891;28;20652;-66
2021/12/19 01:08:55;;;;;;;7.78;6.22;;;;;;;;;;5092930;28;20289;-66
2021/12/19 01:11:24;;;;;;;6.80;5.53;;;;;;;;;;5092766;28;20217;-66
2021/12/19 01:13:51;;;;;;;8.03;5.50;;;;;;;;;;5092930;28;20283;-65
2021/12/19 01:16:19;;;;;;;4.90;4.40;;;;;;;;;;5093312;28;20569;-66
2021/12/19 01:18:47;;;;;;;5.90;4.40;;;;;;;;;;5092771;28;20205;-66
2021/12/19 01:21:14;;;;;;;6.85;5.15;;;;;;;;;;5093905;28;20211;-66
2021/12/19 01:23:42;;;;;;;9.38;4.97;;;;;;;;;;5092999;28;20193;-66
2021/12/19 01:26:09;;;;;;;6.85;5.13;;;;;;;;;;5092726;28;20217;-66
2021/12/19 01:28:38;;;;;;;5.43;4.00;;;;;;;;;;5093270;28;20282;-66
2021/12/19 01:31:05;;;;;;;7.60;4.18;;;;;;;;;;5092585;28;20303;-66
2021/12/19 01:33:32;;;;;;;8.95;4.47;;;;;;;;;;5093362;28;20196;-66
2021/12/19 01:35:59;;;;;;;5.45;3.88;;;;;;;;;;5092947;28;20229;-66
2021/12/19 01:38:27;;;;;;;7.93;4.80;;;;;;;;;;5095433;28;20283;-66
2021/12/19 01:40:54;;;;;;;7.28;4.25;;;;;;;;;;5096481;28;20214;-66
2021/12/19 01:43:24;;;;;;;7.15;4.68;;;;;;;;;;5096148;28;20232;-65
2021/12/19 01:45:53;;;;;;;5.15;3.97;;;;;;;;;;5096037;28;20615;-66
2021/12/19 01:48:21;;;;;;;5.30;4.40;;;;;;;;;;5096084;28;20287;-66
2021/12/19 01:50:48;;;;;;;6.30;3.93;;;;;;;;;;5096088;28;20568;-66
2021/12/19 01:53:16;;;;;;;6.40;3.80;;;;;;;;;;5096129;28;20964;-66
2021/12/19 01:55:44;;;;;;;5.88;3.90;;;;;;;;;;5096304;28;20199;-66
2021/12/19 01:58:12;;;;;;;4.55;3.53;;;;;;;;;;5096167;28;20287;-66
2021/12/19 02:00:41;;;;;;;3.83;3.00;;;;;;;;;;5095846;28;20206;-66
2021/12/19 02:03:10;;;;;;;3.95;3.10;;;;;;;;;;5096200;28;20299;-66
2021/12/19 02:05:38;;;;;;;3.65;2.80;;;;;;;;;;5095713;28;20242;-66
2021/12/19 02:08:06;;;;;;;2.88;2.50;;;;;;;;;;5095679;28;20650;-66
2021/12/19 02:10:35;;;;;;;2.78;2.40;;;;;;;;;;5095879;28;20307;-65
2021/12/19 02:13:04;;;;;;;2.70;2.50;;;;;;;;;;5095577;28;20282;-65
2021/12/19 02:15:32;;;;;;;3.08;2.17;;;;;;;;;;5095809;28;20224;-66
2021/12/19 02:18:02;;;;;;;2.83;2.35;;;;;;;;;;5095742;28;20287;-66
2021/12/19 02:20:33;;;;;;;3.30;2.55;;;;;;;;;;5096631;28;20220;-66
2021/12/19 02:23:01;;;;;;;4.72;2.90;;;;;;;;;;5095430;28;20275;-66
2021/12/19 02:25:29;;;;;;;3.70;2.72;;;;;;;;;;5095399;28;20254;-66
2021/12/19 02:27:56;;;;;;;3.53;3.10;;;;;;;;;;5095589;28;20285;-66
2021/12/19 02:30:23;;;;;;;3.35;3.03;;;;;;;;;;5095461;28;20305;-66
2021/12/19 02:32:50;;;;;;;3.67;3.35;;;;;;;;;;5095420;28;20289;-65
2021/12/19 02:35:22;;;;;;;5.00;3.40;;;;;;;;;;5095423;28;20281;-66
2021/12/19 02:49:05;;;;;;;6.57;3.42;;;;;;;;;;5094824;28;20183;-65
2021/12/19 02:51:35;;;;;;;5.75;4.00;;;;;;;;;;5095052;28;20304;-66
2021/12/19 02:54:04;;;;;;;6.60;3.90;;;;;;;;;;5095071;28;20598;-66
2021/12/19 02:56:32;;;;;;;4.30;3.13;;;;;;;;;;5095178;28;20658;-66
2021/12/19 02:58:59;;;;;;;4.93;3.10;;;;;;;;;;5095657;28;20196;-65
2021/12/19 03:01:27;;;;;;;5.30;3.47;;;;;;;;;;5094982;28;20299;-65
2021/12/19 03:03:55;;;;;;;4.60;3.05;;;;;;;;;;5094595;28;20241;-66
2021/12/19 03:06:22;;;;;;;7.63;3.85;;;;;;;;;;5094493;28;20283;-66
2021/12/19 03:08:51;;;;;;;7.18;2.97;;;;;;;;;;5094804;28;20278;-66
2021/12/19 03:19:37;;;;;;;3.05;2.60;;;;;;;;;;5094503;28;20244;-66
2021/12/19 03:22:05;;;;;;;3.63;2.92;;;;;;;;;;5094210;28;20298;-66
2021/12/19 03:24:32;;;;;;;5.85;3.50;;;;;;;;;;5095010;28;20220;-65
2021/12/19 03:27:00;;;;;;;4.35;3.95;;;;;;;;;;5094088;28;20285;-65
2021/12/19 03:29:28;;;;;;;5.45;3.38;;;;;;;;;;5094075;28;20280;-65
2021/12/19 03:31:55;;;;;;;4.38;2.80;;;;;;;;;;5094310;28;20326;-65
2021/12/19 03:34:22;;;;;;;4.82;3.97;;;;;;;;;;5093978;28;20733;-65
2021/12/19 03:36:51;;;;;;;4.40;3.35;;;;;;;;;;5093871;28;20290;-66
2021/12/19 03:39:32;;;;;;;4.43;3.20;;;;;;;;;;5094179;28;20202;-65
2021/12/19 03:42:01;;;;;;;7.85;3.50;;;;;;;;;;5093938;28;20200;-65
2021/12/19 03:44:28;;;;;;;3.50;3.20;;;;;;;;;;5093973;28;20289;-65
2021/12/19 03:46:55;;;;;;;5.45;4.18;;;;;;;;;;5094081;28;20280;-65
2021/12/19 03:49:24;;;;;;;5.45;3.95;;;;;;;;;;5094052;28;20192;-65
2021/12/19 03:51:51;;;;;;;6.93;4.25;;;;;;;;;;5094627;28;20219;-65
2021/12/19 03:54:18;;;;;;;7.22;4.80;;;;;;;;;;5094017;28;20202;-65
2021/12/19 03:56:45;;;;;;;5.88;4.45;;;;;;;;;;5093959;28;20287;-64
2021/12/19 03:59:14;;;;;;;5.50;3.80;;;;;;;;;;5093241;28;20689;-64
2021/12/19 04:01:46;;;;;;;6.38;4.50;;;;;;;;;;5093751;28;20590;-64
2021/12/19 04:04:14;;;;;;;5.88;4.00;;;;;;;;;;5094077;28;20187;-64
2021/12/19 04:06:41;;;;;;;9.20;5.53;;;;;;;;;;5093738;28;20203;-64
2021/12/19 04:09:08;;;;;;;11.63;4.93;;;;;;;;;;5093769;28;20287;-64
2021/12/19 04:11:36;;;;;;;5.80;4.60;;;;;;;;;;5093717;28;20227;-64
2021/12/19 04:14:03;;;;;;;6.15;4.18;;;;;;;;;;5093523;28;20733;-64
2021/12/19 04:16:31;;;;;;;6.50;4.85;;;;;;;;;;5093155;28;20314;-64
2021/12/19 04:18:59;;;;;;;6.32;5.00;;;;;;;;;;5093679;28;20638;-64
2021/12/19 04:21:26;;;;;;;5.45;3.67;;;;;;;;;;5093718;28;20243;-64
2021/12/19 04:23:53;;;;;;;6.30;4.70;;;;;;;;;;5093725;28;20202;-64
2021/12/19 04:26:20;;;;;;;6.57;4.22;;;;;;;;;;5093563;28;20319;-64
2021/12/19 04:28:48;;;;;;;6.25;5.05;;;;;;;;;;5093597;28;20636;-64
2021/12/19 04:31:15;;;;;;;4.65;3.97;;;;;;;;;;5093364;28;20711;-64
2021/12/19 04:33:43;;;;;;;7.25;3.65;;;;;;;;;;5093177;28;20283;-64
2021/12/19 04:36:16;;;;;;;6.28;4.93;;;;;;;;;;5093504;28;20546;-64
2021/12/19 04:44:39;;;;;;;6.38;4.53;;;;;;;;;;5062550;28;20191;-64
2021/12/19 05:01:27;;;;;;;6.15;4.15;;;;;;;;;;5056410;28;20200;-65
2021/12/19 05:04:07;;;;;;;5.32;3.63;;;;;;;;;;5093976;28;20185;-64
2021/12/19 05:13:59;;;;;;;4.72;4.20;;;;;;;;;;5093161;28;20628;-64
2021/12/19 05:15:04;;;;;;;4.70;3.60;;;;;;;;;;5096914;28;20314;-64
2021/12/19 05:17:32;;;;;;;5.20;3.42;;;;;;;;;;5096659;28;20236;-65
2021/12/19 05:20:14;;;;;;;6.47;4.00;;;;;;;;;;5096630;28;20245;-64
2021/12/19 05:22:47;;;;;;;4.32;2.85;;;;;;;;;;5097609;28;20195;-64
2021/12/19 05:25:15;;;;;;;5.63;2.97;;;;;;;;;;5096569;28;20184;-64
2021/12/19 05:27:45;;;;;;;4.35;3.63;;;;;;;;;;5096465;28;20196;-64
2021/12/19 05:30:13;;;;;;;5.03;3.90;;;;;;;;;;5096441;28;20287;-64
2021/12/19 05:32:41;;;;;;;4.65;3.03;;;;;;;;;;5096674;28;20222;-65
2021/12/19 05:35:09;;;;;;;4.88;3.38;;;;;;;;;;5096805;28;20280;-64
2021/12/19 05:46:01;;;;;;;3.33;3.05;;;;;;;;;;5096582;28;20589;-64
2021/12/19 05:48:28;;;;;;;4.07;3.20;;;;;;;;;;5096225;28;20595;-64
2021/12/19 05:50:55;;;;;;;6.93;3.67;;;;;;;;;;5095775;28;20306;-64
2021/12/19 05:53:23;;;;;;;4.13;3.30;;;;;;;;;;5096362;28;20611;-64
2021/12/19 05:55:55;;;;;;;4.18;3.60;;;;;;;;;;5096156;28;20199;-64
2021/12/19 05:58:22;;;;;;;3.72;3.03;;;;;;;;;;5096280;28;20606;-64
2021/12/19 06:00:49;;;;;;;5.43;3.03;;;;;;;;;;5096492;28;20279;-64
2021/12/19 06:03:16;;;;;;;4.43;3.13;;;;;;;;;;5095824;28;20195;-64
2021/12/19 06:05:44;;;;;;;3.95;2.85;;;;;;;;;;5096106;28;20282;-64
2021/12/19 06:08:11;;;;;;;5.20;3.72;;;;;;;;;;5095671;28;20288;-63
2021/12/19 06:10:38;;;;;;;3.13;2.63;;;;;;;;;;5096125;28;20200;-64
2021/12/19 06:13:07;;;;;;;3.80;2.92;;;;;;;;;;5095482;28;20313;-64
2021/12/19 06:15:35;;;;;;;4.50;3.45;;;;;;;;;;5095403;28;20280;-64
2021/12/19 06:18:03;;;;;;;3.88;3.45;;;;;;;;;;5095332;28;20671;-64
2021/12/19 06:20:31;;;;;;;3.20;2.80;;;;;;;;;;5095551;28;20227;-64
2021/12/19 06:22:58;;;;;;;5.10;3.15;;;;;;;;;;5094977;28;20209;-63
2021/12/19 06:25:26;;;;;;;10.95;3.63;;;;;;;;;;5095712;28;20282;-64
2021/12/19 06:27:53;;;;;;;3.80;3.17;;;;;;;;;;5095200;28;20288;-64
2021/12/19 06:30:22;;;;;;;4.63;3.25;;;;;;;;;;5095725;28;20231;-64
2021/12/19 06:32:50;;;;;;;4.28;3.80;;;;;;;;;;5095347;28;20272;-64
2021/12/19 06:35:18;;;;;;;4.10;3.30;;;;;;;;;;5095629;28;20298;-64
2021/12/19 06:37:46;;;;;;;4.30;3.40;;;;;;;;;;5095329;28;20282;-64
2021/12/19 06:40:15;;;;;;;3.25;2.60;;;;;;;;;;5095191;28;20286;-64
2021/12/19 06:42:43;;;;;;;3.80;3.30;;;;;;;;;;5095070;28;20286;-64
2021/12/19 06:45:10;;;;;;;3.80;3.50;;;;;;;;;;5095206;28;20286;-64
2021/12/19 06:47:39;;;;;;;4.13;3.15;;;;;;;;;;5095095;28;20283;-64
2021/12/19 06:50:07;;;;;;;3.83;3.15;;;;;;;;;;5094864;28;20283;-63
2021/12/19 06:52:34;;;;;;;3.20;2.90;;;;;;;;;;5095333;28;20630;-63
2021/12/19 06:55:01;;;;;;;3.70;3.40;;;;;;;;;;5095007;28;20253;-64
2021/12/19 06:57:29;;;;;;;3.45;3.03;;;;;;;;;;5095210;28;20730;-63
2021/12/19 06:59:56;;;;;;;3.83;3.15;;;;;;;;;;5095664;28;20600;-63
2021/12/19 07:02:24;;;;;;;3.60;2.78;;;;;;;;;;5094606;28;20295;-63
2021/12/19 07:04:52;;;;;;;3.00;2.67;;;;;;;;;;5094528;28;20202;-64
2021/12/19 07:07:21;;;;;;;3.05;2.75;;;;;;;;;;5094536;28;20683;-64
2021/12/19 07:09:49;;;;;;;3.25;2.72;;;;;;;;;;5094732;28;20190;-64
2021/12/19 07:12:17;;;;;;;5.80;2.50;;;;;;;;;;5094287;28;20213;-63
2021/12/19 07:14:44;;;;;;;3.85;2.55;;;;;;;;;;5094432;28;20638;-63
2021/12/19 07:17:12;;;;;;;3.05;2.78;;;;;;;;;;5094472;28;20219;-64
2021/12/19 07:19:39;;;;;;;3.90;2.65;;;;;;;;;;5093990;28;20199;-64
2021/12/19 07:22:07;;;;;;;3.42;3.13;;;;;;;;;;5094275;28;20238;-64
2021/12/19 07:24:35;;;;;;;3.70;2.90;;;;;;;;;;5094491;28;20291;-64
2021/12/19 07:27:02;;;;;;;5.35;2.70;;;;;;;;;;5094788;28;20279;-64
2021/12/19 07:29:30;;;;;;;3.70;3.20;;;;;;;;;;5094442;28;20244;-64
2021/12/19 07:31:57;;;;;;;3.40;2.65;;;;;;;;;;5094609;28;20262;-64
2021/12/19 07:34:30;;;;;;;2.63;2.42;;;;;;;;;;5093621;28;20659;-64
2021/12/19 07:36:58;;;;;;;3.10;2.15;;;;;;;;;;5094383;28;20238;-64
2021/12/19 07:39:38;;;;;;;4.90;2.70;;;;;;;;;;5094276;28;20537;-64
2021/12/19 07:42:07;;;;;;;2.45;2.25;;;;;;;;;;5093983;28;20222;-64
2021/12/19 07:44:34;;;;;;;4.28;2.70;;;;;;;;;;5094066;28;20655;-64
2021/12/19 07:47:02;;;;;;;2.78;2.10;;;;;;;;;;5093789;28;20203;-64
2021/12/19 07:49:29;;;;;;;2.80;2.60;;;;;;;;;;5094101;28;20206;-64
2021/12/19 07:51:57;;;;;;;3.10;2.80;;;;;;;;;;5093593;28;20258;-64
2021/12/19 07:54:24;;;;;;;2.92;2.63;;;;;;;;;;5094258;28;20250;-64
2021/12/19 07:56:52;;;;;;;3.88;2.40;;;;;;;;;;5093567;28;20243;-64
2021/12/19 07:59:20;;;;;;;3.08;2.33;;;;;;;;;;5093834;28;20200;-64
2021/12/19 08:01:48;;;;;;;3.45;2.30;;;;;;;;;;5093620;28;20195;-64
2021/12/19 08:04:15;;;;;;;3.85;2.50;;;;;;;;;;5093814;28;20291;-64
2021/12/19 08:06:42;;;;;;;3.40;2.50;;;;;;;;;;5093226;28;20740;-64
2021/12/19 08:09:20;;;;;;;3.85;2.72;;;;;;;;;;5093771;28;20262;-64
2021/12/19 08:11:47;;;;;;;3.30;2.17;;;;;;;;;;5093452;28;20210;-64
2021/12/19 08:14:17;;;;;;;2.50;2.20;;;;;;;;;;5093537;28;20283;-64
2021/12/19 08:16:45;;;;;;;2.63;1.60;;;;;;;;;;5093451;28;20305;-64
2021/12/19 08:19:12;;;;;;;2.67;1.83;;;;;;;;;;5093929;28;20556;-64
2021/12/19 08:21:39;;;;;;;2.35;1.83;;;;;;;;;;5093606;28;20287;-65
2021/12/19 08:24:10;;;;;;;9.95;2.30;;;;;;;;;;5093561;28;20229;-64
2021/12/19 08:26:38;;;;;;;2.50;1.90;;;;;;;;;;5093653;28;20267;-64
2021/12/19 08:29:05;;;;;;;2.50;2.00;;;;;;;;;;5093506;28;20221;-64
2021/12/19 08:31:34;;;;;;;6.90;2.30;;;;;;;;;;5093581;28;20625;-65
2021/12/19 08:34:16;;;;;;;4.55;2.35;;;;;;;;;;5093160;28;20200;-64
2021/12/19 08:36:43;;;;;;;3.13;2.20;;;;;;;;;;5093503;28;20198;-65
2021/12/19 08:39:14;;;;;;;2.30;1.95;;;;;;;;;;5093463;28;20196;-64
2021/12/19 08:41:43;;;;;;;3.20;2.28;;;;;;;;;;5093281;28;20229;-65
2021/12/19 08:44:10;;;;;;;1.73;1.63;;;;;;;;;;5093671;28;20264;-64
2021/12/19 08:46:40;;;;;;;2.30;2.10;;;;;;;;;;5094983;28;20751;-65
2021/12/19 08:49:09;;;;;;;2.92;2.50;;;;;;;;;;5097651;28;20192;-64
2021/12/19 08:51:37;;;;;;;2.42;2.22;;;;;;;;;;5097401;28;20199;-65
2021/12/19 08:54:05;;;;;;;2.05;1.80;;;;;;;;;;5097486;28;20203;-65
2021/12/19 08:56:32;;;;;;;3.20;1.73;;;;;;;;;;5096971;28;20204;-65
2021/12/19 08:58:59;;;;;;;2.05;1.95;;;;;;;;;;5097580;28;20246;-65
2021/12/19 09:01:27;;;;;;;2.10;1.60;;;;;;;;;;5097748;28;20247;-65
2021/12/19 09:03:56;;;;;;;1.60;1.50;;;;;;;;;;5097345;28;20231;-65
2021/12/19 09:06:23;;;;;;;1.65;1.55;;;;;;;;;;5096881;28;20271;-65
2021/12/19 09:08:50;;;;;;;1.80;1.52;;;;;;;;;;5096836;28;20654;-65
2021/12/19 09:11:17;;;;;;;1.60;1.40;;;;;;;;;;5096821;28;20659;-65
2021/12/19 09:13:45;;;;;;;2.10;1.80;;;;;;;;;;5097120;28;20690;-65
2021/12/19 09:16:12;;;;;;;3.75;1.48;;;;;;;;;;5096472;28;20312;-64
2021/12/19 09:18:39;;;;;;;1.98;1.75;;;;;;;;;;5096682;28;20230;-65
2021/12/19 09:21:08;;;;;;;1.70;1.60;;;;;;;;;;5096682;28;20710;-65
2021/12/19 09:23:35;;;;;;;1.63;1.52;;;;;;;;;;5096862;28;20623;-64
2021/12/19 09:26:03;;;;;;;1.98;1.60;;;;;;;;;;5095978;28;20199;-65
2021/12/19 09:28:30;;;;;;;1.73;1.60;;;;;;;;;;5096829;28;20652;-65
2021/12/19 09:30:57;;;;;;;1.73;1.63;;;;;;;;;;5096747;28;20230;-64
2021/12/19 09:33:25;;;;;;;1.60;1.50;;;;;;;;;;5096692;28;20220;-65
2021/12/19 09:35:52;;;;;;;1.73;1.63;;;;;;;;;;5096619;28;20299;-64
2021/12/19 09:38:21;;;;;;;1.95;1.85;;;;;;;;;;5096437;28;20256;-64
2021/12/19 09:40:48;;;;;;;2.40;2.20;;;;;;;;;;5096885;28;20647;-64
2021/12/19 09:45:59;;;;;;;2.90;2.30;;;;;;;;;;5083145;28;20279;-65
2021/12/19 09:48:26;;;;;;;1.60;1.50;;;;;;;;;;5096474;28;20191;-65
2021/12/19 09:50:54;;;;;;;1.83;1.63;;;;;;;;;;5096039;28;20200;-64
2021/12/19 09:53:23;;;;;;;2.22;2.03;;;;;;;;;;5095880;28;20301;-64
2021/12/19 09:55:50;;;;;;;1.90;1.80;;;;;;;;;;5095862;28;20304;-64
2021/12/19 09:58:18;;;;;;;3.10;1.92;;;;;;;;;;5095198;28;20635;-64
2021/12/19 10:00:45;;;;;;;2.45;2.25;;;;;;;;;;5096194;28;20287;-64
2021/12/19 10:03:12;;;;;;;6.07;2.45;;;;;;;;;;5095766;28;20249;-65
2021/12/19 10:05:40;;;;;;;2.72;2.30;;;;;;;;;;5096139;28;20211;-64
2021/12/19 10:08:08;;;;;;;2.35;2.08;;;;;;;;;;5096081;28;20537;-64
2021/12/19 10:10:45;;;;;;;2.03;1.90;;;;;;;;;;5095671;28;20193;-64
2021/12/19 10:13:13;;;;;;;2.70;2.40;;;;;;;;;;5095627;28;20678;-65
2021/12/19 10:15:42;;;;;;;2.47;2.28;;;;;;;;;;5095261;28;20314;-64
2021/12/19 10:18:10;;;;;;;2.85;2.60;;;;;;;;;;5096067;28;20193;-64
2021/12/19 10:20:44;;;;;;;3.13;2.50;;;;;;;;;;5095800;28;20195;-65
2021/12/19 10:23:12;;;;;;;3.60;3.10;;;;;;;;;;5095813;28;20237;-64
2021/12/19 10:25:41;;;;;;;3.47;2.85;;;;;;;;;;5095753;28;20291;-64
2021/12/19 10:28:10;;;;;;;13.18;3.45;;;;;;;;;;5095657;28;20283;-65
2021/12/19 10:30:38;;;;;;;3.65;3.35;;;;;;;;;;5095170;28;20200;-65
2021/12/19 10:33:06;;;;;;;3.47;3.17;;;;;;;;;;5095375;28;20302;-64
2021/12/19 10:35:34;;;;;;;6.43;4.00;;;;;;;;;;5095607;28;20282;-65
2021/12/19 10:38:02;;;;;;;5.22;3.45;;;;;;;;;;5095450;28;20232;-64
2021/12/19 10:40:30;;;;;;;4.00;3.60;;;;;;;;;;5095345;28;20328;-64
2021/12/19 10:43:01;;;;;;;3.92;3.13;;;;;;;;;;5095738;28;20317;-65
2021/12/19 10:45:33;;;;;;;5.75;4.20;;;;;;;;;;5095849;28;20269;-65
2021/12/19 10:48:10;;;;;;;6.95;4.80;;;;;;;;;;5094977;28;20191;-65
2021/12/19 10:50:49;;;;;;;9.40;4.40;;;;;;;;;;5095185;28;20204;-64
2021/12/19 10:53:16;;;;;;;6.40;5.07;;;;;;;;;;5095098;28;20337;-64
2021/12/19 10:55:45;;;;;;;8.65;4.07;;;;;;;;;;5094687;28;20281;-64
2021/12/19 10:58:39;;;;;;;8.20;5.00;;;;;;;;;;5094684;28;20250;-64
2021/12/19 11:01:12;;;;;;;9.35;4.65;;;;;;;;;;5047999;28;20585;-64
2021/12/19 11:03:45;;;;;;;9.23;5.05;;;;;;;;;;5095199;28;20282;-64
2021/12/19 11:06:20;;;;;;;8.70;5.13;;;;;;;;;;5095381;28;20649;-64
2021/12/19 11:08:47;;;;;;;8.48;4.68;;;;;;;;;;5095522;28;20237;-64
2021/12/19 11:11:30;;;;;;;6.20;5.40;;;;;;;;;;5094845;28;20246;-65
2021/12/19 11:13:57;;;;;;;12.18;5.35;;;;;;;;;;5094895;28;20234;-65
2021/12/19 11:16:26;;;;;;;9.13;5.25;;;;;;;;;;5094345;28;20267;-65
2021/12/19 11:18:53;;;;;;;7.15;5.13;;;;;;;;;;5094603;28;20285;-65
2021/12/19 11:21:20;;;;;;;5.78;4.40;;;;;;;;;;5094573;28;20282;-65
2021/12/19 11:23:49;;;;;;;9.77;5.10;;;;;;;;;;5094450;28;20666;-64
2021/12/19 11:26:18;;;;;;;11.63;5.35;;;;;;;;;;5094103;28;20279;-65
2021/12/19 11:28:46;;;;;;;6.90;5.45;;;;;;;;;;5094070;28;20195;-65
2021/12/19 11:31:13;;;;;;;12.10;5.43;;;;;;;;;;5094098;28;20231;-64
2021/12/19 11:33:56;;;;;;;8.07;5.22;;;;;;;;;;5094164;28;20458;-64
2021/12/19 11:36:24;;;;;;;11.18;4.85;;;;;;;;;;5094683;28;20611;-64
2021/12/19 11:38:51;;;;;;;6.07;4.55;;;;;;;;;;5094253;28;20205;-65
2021/12/19 11:41:19;;;;;;;8.32;5.60;;;;;;;;;;5094513;28;20283;-65
2021/12/19 11:43:49;;;;;;;9.80;4.97;;;;;;;;;;5093858;28;20243;-70
2021/12/19 11:46:20;;;;;;;6.65;5.30;;;;;;;;;;5094198;28;20594;-70
2021/12/19 11:49:09;;;;;;;8.80;5.30;;;;;;;;;;5093792;28;20184;-64
2021/12/19 11:51:36;;;;;;;12.20;5.25;;;;;;;;;;5093762;28;20422;-63
2021/12/19 11:54:12;;;;;;;9.77;5.43;;;;;;;;;;5094017;28;20217;-64
2021/12/19 11:56:40;;;;;;;7.75;4.25;;;;;;;;;;5094042;28;20215;-68
2021/12/19 11:59:18;;;;;;;7.25;5.25;;;;;;;;;;5091966;28;20295;-65
2021/12/19 12:01:46;;;;;;;6.13;5.07;;;;;;;;;;5093555;28;20187;-65
2021/12/19 12:04:17;;;;;;;5.13;4.57;;;;;;;;;;5094096;28;20647;-65
2021/12/19 12:06:44;;;;;;;9.20;5.28;;;;;;;;;;5094311;28;20183;-64
2021/12/19 12:09:13;;;;;;;4.57;3.88;;;;;;;;;;5093927;28;20200;-65
2021/12/19 12:11:41;;;;;;;5.00;3.80;;;;;;;;;;5093896;28;20540;-66
2021/12/19 12:14:21;;;;;;;5.03;3.78;;;;;;;;;;5093310;28;20311;-65
2021/12/19 12:16:53;;;;;;;5.20;3.95;;;;;;;;;;5093890;28;20280;-66
2021/12/19 12:19:37;;;;;;;4.35;3.45;;;;;;;;;;5094372;28;20199;-66
2021/12/19 12:22:21;;;;;;;6.72;4.68;;;;;;;;;;5093954;28;20188;-65
2021/12/19 12:25:03;;;;;;;7.78;4.43;;;;;;;;;;5093410;28;20195;-67
2021/12/19 12:27:35;;;;;;;7.40;4.20;;;;;;;;;;5093854;28;20208;-67
2021/12/19 12:30:03;;;;;;;9.13;4.30;;;;;;;;;;5093944;28;20183;-66
2021/12/19 12:32:30;;;;;;;4.95;3.63;;;;;;;;;;5094066;28;20266;-66
2021/12/19 12:34:59;;;;;;;12.10;4.60;;;;;;;;;;5093725;28;20260;-66
2021/12/19 12:37:28;;;;;;;9.02;5.07;;;;;;;;;;5093165;28;20280;-66
2021/12/19 12:40:16;;;;;;;7.53;4.18;;;;;;;;;;5093744;28;20208;-65
2021/12/19 12:42:57;;;;;;;5.47;3.47;;;;;;;;;;5093247;28;20191;-66
2021/12/19 12:45:24;;;;;;;7.47;4.13;;;;;;;;;;5093071;28;20192;-65
2021/12/19 12:47:51;;;;;;;5.88;3.83;;;;;;;;;;5093116;28;20236;-66
2021/12/19 12:50:20;;;;;;;5.32;4.22;;;;;;;;;;5093015;28;20201;-66
2021/12/19 12:52:47;;;;;;;6.53;4.75;;;;;;;;;;5093703;28;20228;-66
2021/12/19 12:55:15;;;;;;;9.95;3.95;;;;;;;;;;5092979;28;20283;-65
2021/12/19 12:57:44;;;;;;;6.68;3.35;;;;;;;;;;5093167;28;20211;-65
2021/12/19 13:00:19;;;;;;;9.15;4.82;;;;;;;;;;5093025;28;20287;-65
2021/12/19 13:02:55;;;;;;;6.85;3.97;;;;;;;;;;5092992;28;20188;-65
2021/12/19 13:05:23;;;;;;;10.20;4.28;;;;;;;;;;5093311;28;20192;-65
2021/12/19 13:07:51;;;;;;;4.55;3.10;;;;;;;;;;5093700;28;20248;-65
2021/12/19 13:10:18;;;;;;;6.13;3.83;;;;;;;;;;5093427;28;20200;-65
2021/12/19 13:12:46;;;;;;;6.03;3.55;;;;;;;;;;5092927;28;20602;-65
2021/12/19 13:15:15;;;;;;;3.97;3.42;;;;;;;;;;5092949;28;20233;-64
2021/12/19 13:17:43;;;;;;;4.95;3.67;;;;;;;;;;5093176;28;20559;-64
2021/12/19 13:20:11;;;;;;;4.68;3.58;;;;;;;;;;5090505;28;20228;-64
2021/12/19 13:22:43;;;;;;;8.60;4.07;;;;;;;;;;5092818;28;20239;-64
2021/12/19 13:25:11;;;;;;;6.05;3.75;;;;;;;;;;5092788;28;20196;-65
2021/12/19 13:27:40;;;;;;;4.55;3.95;;;;;;;;;;5092925;28;20201;-65
2021/12/19 13:30:18;;;;;;;6.45;3.60;;;;;;;;;;5092696;28;20228;-64
2021/12/19 13:32:47;;;;;;;6.90;4.18;;;;;;;;;;5095192;28;20202;-64
2021/12/19 13:35:19;;;;;;;4.95;4.45;;;;;;;;;;5096330;28;20248;-65
2021/12/19 13:37:49;;;;;;;6.35;3.80;;;;;;;;;;5096294;28;20648;-65
2021/12/19 13:40:16;;;;;;;6.70;4.20;;;;;;;;;;5096259;28;20201;-64
2021/12/19 13:42:45;;;;;;;4.93;3.65;;;;;;;;;;5096839;28;20203;-65
2021/12/19 13:45:33;;;;;;;4.47;3.63;;;;;;;;;;5095982;28;20658;-65
2021/12/19 13:48:01;;;;;;;4.43;3.65;;;;;;;;;;5096751;28;20795;-65
2021/12/19 13:50:33;;;;;;;7.03;4.00;;;;;;;;;;5096658;28;20226;-65
2021/12/19 13:53:01;;;;;;;4.70;3.25;;;;;;;;;;5095926;28;20220;-65
2021/12/19 13:55:29;;;;;;;12.38;4.90;;;;;;;;;;5096197;28;20255;-65
2021/12/19 13:58:06;;;;;;;6.43;4.53;;;;;;;;;;5095964;28;20287;-64
2021/12/19 14:00:34;;;;;;;6.65;4.57;;;;;;;;;;5096516;28;20279;-64
2021/12/19 14:03:02;;;;;;;6.28;4.22;;;;;;;;;;5095822;28;20231;-64
2021/12/19 14:05:34;;;;;;;6.68;3.70;;;;;;;;;;5096979;28;20284;-65
2021/12/19 14:08:17;;;;;;;5.88;3.75;;;;;;;;;;5096104;28;20243;-64
2021/12/19 14:10:44;;;;;;;5.45;3.33;;;;;;;;;;5095704;28;20272;-64
2021/12/19 14:13:16;;;;;;;4.95;4.30;;;;;;;;;;5095962;28;20383;-66
2021/12/19 14:15:51;;;;;;;3.85;3.45;;;;;;;;;;5096274;28;20236;-65
2021/12/19 14:18:28;;;;;;;6.18;3.35;;;;;;;;;;5096088;28;20193;-65
2021/12/19 14:20:55;;;;;;;5.30;3.92;;;;;;;;;;5096401;28;20280;-65
2021/12/19 14:23:24;;;;;;;9.43;4.22;;;;;;;;;;5096281;28;20228;-64
2021/12/19 14:25:58;;;;;;;7.38;5.47;;;;;;;;;;5095891;28;20804;-65
2021/12/19 14:28:30;;;;;;;7.20;3.03;;;;;;;;;;5096020;28;20189;-65
2021/12/19 14:30:58;;;;;;;4.95;3.17;;;;;;;;;;5096674;28;20189;-65
2021/12/19 14:33:35;;;;;;;6.35;3.58;;;;;;;;;;5095412;28;20648;-65
2021/12/19 14:36:04;;;;;;;7.68;3.53;;;;;;;;;;5096098;28;20196;-65
2021/12/19 14:38:34;;;;;;;3.40;3.10;;;;;;;;;;5095920;28;20269;-65
2021/12/19 14:41:03;;;;;;;5.65;3.25;;;;;;;;;;5095849;28;20519;-64
2021/12/19 14:43:31;;;;;;;4.28;2.80;;;;;;;;;;5095534;28;20235;-64
2021/12/19 14:45:59;;;;;;;7.40;3.88;;;;;;;;;;5095206;28;20192;-66
2021/12/19 14:48:33;;;;;;;8.73;3.53;;;;;;;;;;5095386;28;20233;-71
2021/12/19 14:51:02;;;;;;;5.18;3.53;;;;;;;;;;5095558;28;20287;-65
2021/12/19 14:53:30;;;;;;;5.43;4.13;;;;;;;;;;5094963;28;20753;-65
2021/12/19 14:56:00;;;;;;;6.88;4.05;;;;;;;;;;5095048;28;20446;-65
2021/12/19 14:58:28;;;;;;;10.82;4.70;;;;;;;;;;5095556;28;20213;-65
2021/12/19 15:00:58;;;;;;;6.43;4.40;;;;;;;;;;5094724;28;20194;-65
2021/12/19 15:03:26;;;;;;;3.67;3.38;;;;;;;;;;5095158;28;20443;-65
2021/12/19 15:05:53;;;;;;;12.60;5.38;;;;;;;;;;5094775;28;20233;-66
2021/12/19 15:08:24;;;;;;;7.57;4.47;;;;;;;;;;5095234;28;20605;-65
2021/12/19 15:10:52;;;;;;;5.75;4.10;;;;;;;;;;5094625;28;20199;-65
2021/12/19 15:13:20;;;;;;;11.27;4.45;;;;;;;;;;5094581;28;20655;-66
2021/12/19 15:15:48;;;;;;;8.90;4.77;;;;;;;;;;5094377;28;20323;-65
2021/12/19 15:18:15;;;;;;;6.28;4.70;;;;;;;;;;5094345;28;20490;-65
2021/12/19 15:20:43;;;;;;;4.82;4.38;;;;;;;;;;5094597;28;20300;-66
2021/12/19 15:23:10;;;;;;;9.13;5.82;;;;;;;;;;5094220;28;20284;-66
2021/12/19 15:25:37;;;;;;;6.82;4.55;;;;;;;;;;5095036;28;20204;-66
2021/12/19 15:28:05;;;;;;;8.07;4.88;;;;;;;;;;5094277;28;20754;-66
2021/12/19 15:30:33;;;;;;;15.70;5.30;;;;;;;;;;5095033;28;20654;-66
2021/12/19 15:33:00;;;;;;;6.05;4.22;;;;;;;;;;5094099;28;20656;-66
2021/12/19 15:35:30;;;;;;;15.48;4.70;;;;;;;;;;5093818;28;20213;-65
2021/12/19 15:37:57;;;;;;;8.43;4.57;;;;;;;;;;5094077;28;20203;-65
2021/12/19 15:40:25;;;;;;;5.28;4.35;;;;;;;;;;5093817;28;20287;-65
2021/12/19 15:42:52;;;;;;;7.72;3.67;;;;;;;;;;5094984;28;20235;-65
2021/12/19 15:45:19;;;;;;;7.68;4.85;;;;;;;;;;5094101;28;20233;-65
2021/12/19 15:47:48;;;;;;;7.10;4.00;;;;;;;;;;5094057;28;20276;-65
2021/12/19 15:50:15;;;;;;;6.80;4.00;;;;;;;;;;5093757;28;20667;-65
2021/12/19 15:52:43;;;;;;;9.63;4.18;;;;;;;;;;5094201;28;20289;-65